Time;durP1;ratioP1;P1;durP2;ratioP2;P2;SDS_P1;SDS_P2;PMS_P1;PMS_P2;Temp;Humidity;BMP_temperature;BMP_pressure;BME280_temperature;BME280_humidity;BME280_pressure;Samples;Min_cycle;Max_cycle;Signal;HPM_P1;HPM_P2
2022/07/26 00:02:21;;;;;;;7.57;6.97;;;;;;;26.61;61.23;99168.91;5132306;28;20615;-66
2022/07/26 00:04:48;;;;;;;8.37;7.77;;;;;;;26.62;61.04;99170.53;5132721;27;20266;-66
2022/07/26 00:07:15;;;;;;;8.33;7.57;;;;;;;26.61;61.15;99175.16;5132322;28;20676;-66
2022/07/26 00:09:42;;;;;;;8.10;7.53;;;;;;;26.73;60.71;99171.88;5132648;28;20194;-66
2022/07/26 00:12:09;;;;;;;9.70;7.57;;;;;;;26.77;60.95;99178.31;5132362;27;20192;-66
2022/07/26 00:14:36;;;;;;;7.93;7.37;;;;;;;26.79;60.85;99170.66;5133332;27;20627;-66
2022/07/26 00:17:05;;;;;;;7.60;7.20;;;;;;;26.83;60.76;99172.44;5132239;27;20677;-66
2022/07/26 00:19:32;;;;;;;7.70;7.10;;;;;;;26.85;60.81;99174.84;5132280;27;20250;-66
2022/07/26 00:24:42;;;;;;;7.40;6.87;;;;;;;26.93;60.64;99171.41;5136314;27;20678;-66
2022/07/26 00:27:09;;;;;;;8.27;7.50;;;;;;;26.89;60.96;99164.94;5136119;27;20245;-66
2022/07/26 00:29:36;;;;;;;8.00;7.40;;;;;;;26.98;60.74;99174.00;5135796;27;20216;-66
2022/07/26 00:32:05;;;;;;;7.40;6.90;;;;;;;26.98;60.58;99177.53;5136602;27;20250;-66
2022/07/26 00:34:31;;;;;;;7.37;6.97;;;;;;;26.92;60.49;99175.25;5135550;27;20194;-66
2022/07/26 00:36:58;;;;;;;7.43;6.93;;;;;;;26.89;60.73;99164.94;5136731;27;20190;-66
2022/07/26 00:39:25;;;;;;;8.03;7.50;;;;;;;26.94;60.70;99178.44;5135580;27;20673;-66
2022/07/26 00:41:52;;;;;;;8.30;7.40;;;;;;;26.85;60.56;99163.97;5136063;27;20251;-66
2022/07/26 00:44:18;;;;;;;7.93;7.27;;;;;;;26.94;60.92;99175.72;5135437;27;20190;-66
2022/07/26 00:46:45;;;;;;;7.40;6.63;;;;;;;26.74;60.59;99178.97;5136145;27;20265;-66
2022/07/26 00:49:13;;;;;;;8.87;6.77;;;;;;;26.54;61.22;99174.75;5135761;27;20251;-66
2022/07/26 00:51:40;;;;;;;8.63;6.77;;;;;;;26.62;61.03;99175.97;5135286;27;20250;-66
2022/07/26 00:54:07;;;;;;;7.50;6.87;;;;;;;26.62;60.74;99171.31;5135276;27;20745;-66
2022/07/26 00:56:34;;;;;;;6.97;6.50;;;;;;;26.65;60.53;99169.88;5135090;27;20664;-67
2022/07/26 00:59:01;;;;;;;7.40;7.00;;;;;;;26.51;61.42;99169.13;5134783;27;20543;-66
2022/07/26 01:01:28;;;;;;;7.57;6.90;;;;;;;26.51;61.58;99163.66;5135060;27;20193;-67
2022/07/26 01:03:55;;;;;;;6.73;6.20;;;;;;;26.44;61.47;99163.28;5134891;27;20665;-66
2022/07/26 01:06:23;;;;;;;7.10;6.47;;;;;;;26.39;62.10;99166.13;5134543;27;20254;-66
2022/07/26 01:08:51;;;;;;;7.13;6.67;;;;;;;26.39;61.45;99169.66;5134986;27;20194;-66
2022/07/26 01:11:17;;;;;;;7.30;6.50;;;;;;;26.39;61.44;99161.47;5135556;27;20611;-66
2022/07/26 01:13:48;;;;;;;7.57;6.90;;;;;;;26.37;61.91;99162.91;5135722;27;20606;-66
2022/07/26 01:16:15;;;;;;;6.87;6.33;;;;;;;26.16;62.18;99162.53;5134759;27;20217;-66
2022/07/26 01:18:42;;;;;;;7.00;6.57;;;;;;;26.18;62.46;99164.97;5134869;27;20718;-66
2022/07/26 01:21:10;;;;;;;7.63;6.93;;;;;;;26.19;62.09;99159.22;5134759;27;20186;-66
2022/07/26 01:23:38;;;;;;;8.00;6.90;;;;;;;26.11;62.32;99159.09;5135010;27;20197;-67
2022/07/26 01:26:06;;;;;;;6.67;6.03;;;;;;;26.05;62.27;99154.91;5134607;27;20255;-66
2022/07/26 01:28:36;;;;;;;7.17;6.47;;;;;;;25.99;62.73;99154.19;5134899;27;20186;-67
2022/07/26 01:31:03;;;;;;;7.83;7.10;;;;;;;25.95;62.54;99160.53;5135396;27;20221;-67
2022/07/26 01:33:29;;;;;;;7.67;7.07;;;;;;;25.86;63.36;99162.34;5134465;27;20242;-67
2022/07/26 01:35:56;;;;;;;9.33;6.97;;;;;;;25.82;63.16;99162.13;5135194;27;20274;-67
2022/07/26 01:38:23;;;;;;;7.67;7.07;;;;;;;25.88;63.15;99160.13;5134859;27;20194;-67
2022/07/26 01:40:51;;;;;;;7.33;6.83;;;;;;;25.77;63.57;99164.97;5134353;27;20190;-67
2022/07/26 01:43:18;;;;;;;7.10;6.60;;;;;;;25.81;63.26;99157.81;5134814;27;20607;-67
2022/07/26 01:45:44;;;;;;;6.93;6.33;;;;;;;25.86;63.07;99163.16;5134279;27;20664;-66
2022/07/26 01:48:11;;;;;;;8.13;7.23;;;;;;;25.89;63.39;99157.06;5134453;27;20225;-66
2022/07/26 01:50:38;;;;;;;7.53;6.63;;;;;;;25.99;63.33;99161.53;5134537;27;20194;-66
2022/07/26 01:53:05;;;;;;;6.77;6.27;;;;;;;26.03;62.79;99151.66;5134420;27;20243;-66
2022/07/26 01:55:31;;;;;;;7.30;6.43;;;;;;;26.06;62.59;99156.50;5134267;27;20274;-66
2022/07/26 01:57:59;;;;;;;8.23;6.67;;;;;;;26.09;62.31;99153.19;5134620;27;20190;-66
2022/07/26 02:00:27;;;;;;;7.37;6.10;;;;;;;26.11;62.46;99148.22;5134234;27;20194;-66
2022/07/26 02:02:54;;;;;;;6.63;6.27;;;;;;;26.07;62.10;99144.50;5134286;27;20186;-67
2022/07/26 02:05:21;;;;;;;7.00;6.47;;;;;;;26.08;61.82;99154.25;5134222;27;20197;-67
2022/07/26 02:07:48;;;;;;;6.30;5.97;;;;;;;26.16;62.42;99150.81;5134206;27;20624;-67
2022/07/26 02:10:15;;;;;;;7.80;6.13;;;;;;;26.21;62.21;99156.97;5134232;27;20243;-67
2022/07/26 02:12:42;;;;;;;6.30;5.80;;;;;;;26.28;61.19;99151.09;5133765;27;20634;-67
2022/07/26 02:15:11;;;;;;;6.90;5.57;;;;;;;26.30;61.59;99157.06;5133569;27;20218;-67
2022/07/26 02:17:38;;;;;;;7.57;5.90;;;;;;;26.28;61.13;99148.38;5134809;27;20190;-67
2022/07/26 02:20:07;;;;;;;5.80;5.30;;;;;;;26.26;60.02;99151.44;5133860;27;20220;-67
2022/07/26 02:22:34;;;;;;;8.47;5.73;;;;;;;26.21;60.38;99148.78;5133567;27;20741;-66
2022/07/26 02:25:00;;;;;;;6.53;5.97;;;;;;;26.22;60.67;99150.44;5133514;27;20189;-66
2022/07/26 02:27:27;;;;;;;8.83;5.53;;;;;;;26.25;60.53;99149.00;5133471;27;20194;-66
2022/07/26 02:29:54;;;;;;;6.57;6.07;;;;;;;26.27;60.47;99144.03;5133761;27;20194;-66
2022/07/26 02:32:22;;;;;;;6.57;6.17;;;;;;;26.17;61.01;99144.28;5133425;27;20190;-66
2022/07/26 02:34:48;;;;;;;8.47;5.63;;;;;;;26.21;61.30;99142.56;5133331;27;20190;-67
2022/07/26 02:37:15;;;;;;;6.27;5.53;;;;;;;26.27;61.41;99144.03;5133498;27;20650;-66
2022/07/26 02:39:42;;;;;;;6.03;5.23;;;;;;;26.37;61.10;99155.53;5133200;27;20313;-67
2022/07/26 02:42:09;;;;;;;5.97;5.33;;;;;;;26.44;60.24;99155.91;5133361;27;20250;-67
2022/07/26 02:44:36;;;;;;;7.77;5.60;;;;;;;26.47;60.14;99158.03;5133700;27;20273;-67
2022/07/26 02:47:02;;;;;;;5.87;5.43;;;;;;;26.48;60.17;99156.09;5133050;27;20242;-67
2022/07/26 02:49:30;;;;;;;6.10;5.07;;;;;;;26.40;60.29;99154.09;5133214;27;20186;-67
2022/07/26 02:51:57;;;;;;;5.80;5.50;;;;;;;26.44;61.15;99158.63;5133381;27;20202;-67
2022/07/26 02:54:24;;;;;;;6.47;5.83;;;;;;;26.54;60.55;99152.16;5133939;27;20198;-67
2022/07/26 02:56:50;;;;;;;6.93;6.03;;;;;;;26.60;60.19;99161.84;5132952;27;20286;-67
2022/07/26 02:59:17;;;;;;;6.57;5.97;;;;;;;26.61;60.06;99163.44;5133878;27;20190;-67
2022/07/26 03:01:44;;;;;;;6.77;6.27;;;;;;;26.68;59.97;99158.38;5133333;27;20205;-66
2022/07/26 03:04:11;;;;;;;6.57;6.00;;;;;;;26.75;59.76;99169.66;5133869;27;20254;-67
2022/07/26 03:06:39;;;;;;;8.37;6.37;;;;;;;26.82;59.40;99161.88;5133139;27;20201;-67
2022/07/26 03:09:05;;;;;;;6.90;6.23;;;;;;;26.88;59.06;99164.16;5132854;28;20250;-67
2022/07/26 03:11:32;;;;;;;6.97;6.20;;;;;;;26.91;58.78;99163.53;5133453;27;20190;-67
2022/07/26 03:13:59;;;;;;;7.73;6.73;;;;;;;26.97;58.64;99167.75;5132863;27;20661;-67
2022/07/26 03:16:26;;;;;;;7.23;6.50;;;;;;;26.99;59.07;99164.72;5133398;27;20213;-67
2022/07/26 03:18:52;;;;;;;7.60;6.93;;;;;;;27.02;58.98;99177.72;5133137;27;20186;-67
2022/07/26 03:21:19;;;;;;;8.53;7.73;;;;;;;27.07;58.87;99172.16;5133054;27;20671;-67
2022/07/26 03:23:47;;;;;;;8.53;7.60;;;;;;;27.02;58.95;99183.16;5132798;27;20198;-66
2022/07/26 03:26:14;;;;;;;17.50;8.17;;;;;;;26.98;59.08;99185.72;5133205;28;20262;-66
2022/07/26 03:28:43;;;;;;;7.10;6.67;;;;;;;26.98;59.26;99182.16;5132789;27;20277;-66
2022/07/26 03:31:10;;;;;;;12.13;7.97;;;;;;;26.99;59.32;99181.88;5132846;28;20254;-67
2022/07/26 03:33:37;;;;;;;9.80;7.90;;;;;;;26.97;59.21;99186.84;5132564;28;20194;-67
2022/07/26 03:36:04;;;;;;;11.17;9.10;;;;;;;26.94;59.59;99197.53;5132515;27;20217;-67
2022/07/26 03:38:30;;;;;;;10.53;9.40;;;;;;;26.89;59.56;99197.66;5133110;28;20250;-67
2022/07/26 03:40:59;;;;;;;10.73;8.80;;;;;;;26.89;59.59;99193.03;5132610;27;20661;-67
2022/07/26 03:43:25;;;;;;;10.20;9.30;;;;;;;26.74;59.89;99192.59;5132543;28;20726;-66
2022/07/26 03:45:52;;;;;;;14.17;10.53;;;;;;;26.55;60.36;99197.34;5132806;27;20198;-67
2022/07/26 03:48:19;;;;;;;15.03;10.77;;;;;;;26.38;60.54;99189.81;5132862;27;20681;-67
2022/07/26 03:50:46;;;;;;;12.17;11.00;;;;;;;26.15;61.29;99192.78;5132780;27;20194;-64
2022/07/26 03:53:12;;;;;;;13.23;12.00;;;;;;;26.03;61.56;99189.78;5132426;27;20734;-67
2022/07/26 03:58:24;;;;;;;16.10;12.53;;;;;;;25.82;62.58;99183.09;5136633;27;20174;-67
2022/07/26 04:00:51;;;;;;;13.37;12.00;;;;;;;25.82;62.95;99191.25;5137212;27;20259;-67
2022/07/26 04:03:18;;;;;;;13.13;11.77;;;;;;;25.86;62.98;99186.81;5136315;27;20186;-67
2022/07/26 04:05:44;;;;;;;12.33;11.20;;;;;;;26.15;62.40;99181.88;5136342;27;20202;-66
2022/07/26 04:08:11;;;;;;;32.17;11.77;;;;;;;26.59;59.75;99193.75;5136041;27;20189;-66
2022/07/26 04:10:38;;;;;;;19.40;12.10;;;;;;;27.14;58.57;99195.13;5136564;27;20198;-66
2022/07/26 04:13:05;;;;;;;11.20;10.13;;;;;;;27.81;55.98;99193.13;5135908;27;20198;-65
2022/07/26 04:15:33;;;;;;;12.50;10.93;;;;;;;28.53;53.93;99194.28;5135785;27;20571;-65
2022/07/26 04:17:59;;;;;;;17.83;12.10;;;;;;;29.27;51.63;99193.00;5135730;27;20605;-66
2022/07/26 04:20:26;;;;;;;13.73;10.53;;;;;;;29.90;49.02;99192.97;5135602;27;20185;-65
2022/07/26 04:22:53;;;;;;;12.57;10.90;;;;;;;30.43;47.32;99182.22;5135716;27;20734;-66
2022/07/26 04:25:20;;;;;;;21.80;11.50;;;;;;;30.99;45.98;99195.31;5136047;27;20247;-65
2022/07/26 04:27:46;;;;;;;11.90;9.43;;;;;;;31.49;44.79;99206.97;5135609;27;20617;-66
2022/07/26 04:30:13;;;;;;;11.87;9.57;;;;;;;32.00;43.44;99197.31;5135537;27;20271;-66
2022/07/26 04:32:41;;;;;;;12.03;9.17;;;;;;;32.35;42.54;99209.47;5135493;27;20242;-64
2022/07/26 04:35:09;;;;;;;34.67;10.03;;;;;;;32.62;41.90;99209.53;5135465;27;20226;-65
2022/07/26 04:37:40;;;;;;;11.07;8.67;;;;;;;32.82;40.42;99203.09;5135926;27;20590;-65
2022/07/26 04:40:08;;;;;;;10.83;9.50;;;;;;;33.16;39.85;99213.50;5135681;27;20281;-65
2022/07/26 04:42:35;;;;;;;19.60;9.10;;;;;;;33.52;39.46;99203.50;5135660;27;20266;-65
2022/07/26 04:45:02;;;;;;;9.27;8.57;;;;;;;33.78;38.24;99206.53;5135588;27;20190;-66
2022/07/26 04:47:28;;;;;;;9.37;8.57;;;;;;;33.95;37.95;99207.00;5135411;27;20226;-66
2022/07/26 04:49:56;;;;;;;10.30;9.35;;;;;;;34.41;37.13;99213.66;5135084;27;20666;-66
2022/07/26 04:52:23;;;;;;;9.97;9.17;;;;;;;34.84;36.02;99216.19;5135477;27;20202;-66
2022/07/26 04:54:50;;;;;;;9.27;8.55;;;;;;;35.16;35.28;99217.66;5135026;27;20612;-66
2022/07/26 04:57:17;;;;;;;9.30;8.57;;;;;;;35.23;35.38;99217.81;5134946;27;20274;-66
2022/07/26 04:59:43;;;;;;;9.30;8.63;;;;;;;35.50;34.86;99216.75;5135194;27;20189;-66
2022/07/26 05:02:10;;;;;;;12.05;8.60;;;;;;;35.34;35.09;99213.28;5135586;27;20190;-66
2022/07/26 05:04:37;;;;;;;8.57;8.00;;;;;;;35.24;35.12;99208.34;5135233;27;20278;-66
2022/07/26 05:07:05;;;;;;;9.50;8.77;;;;;;;35.69;33.98;99213.97;5134766;27;20198;-66
2022/07/26 05:09:31;;;;;;;14.50;8.27;;;;;;;35.99;33.44;99214.88;5134718;27;20617;-67
2022/07/26 05:11:58;;;;;;;8.95;8.23;;;;;;;35.87;33.56;99210.38;5135136;27;20215;-66
2022/07/26 05:14:25;;;;;;;8.85;7.97;;;;;;;35.99;33.52;99212.13;5134716;27;20678;-66
2022/07/26 05:16:52;;;;;;;8.73;7.95;;;;;;;36.21;33.17;99203.00;5135649;27;20222;-66
2022/07/26 05:19:18;;;;;;;9.13;8.32;;;;;;;36.46;32.71;99204.19;5135012;27;20198;-66
2022/07/26 05:21:45;;;;;;;7.88;7.45;;;;;;;36.64;32.21;99202.47;5134600;27;20200;-66
2022/07/26 05:24:13;;;;;;;8.25;7.65;;;;;;;36.82;31.95;99200.75;5134535;27;20254;-66
2022/07/26 05:26:40;;;;;;;8.00;7.38;;;;;;;36.77;31.84;99192.78;5134472;27;20696;-66
2022/07/26 05:29:07;;;;;;;7.90;7.15;;;;;;;36.92;31.74;99191.78;5134505;27;20189;-65
2022/07/26 05:31:33;;;;;;;9.48;8.40;;;;;;;37.24;31.19;99190.22;5133331;27;20194;-66
2022/07/26 05:34:02;;;;;;;9.70;8.25;;;;;;;37.41;30.93;99189.59;5132320;27;20281;-66
2022/07/26 05:36:29;;;;;;;9.43;8.55;;;;;;;37.54;30.62;99196.47;5134236;27;20214;-66
2022/07/26 05:38:55;;;;;;;8.93;8.20;;;;;;;37.44;31.12;99186.06;5134203;27;20243;-66
2022/07/26 05:41:23;;;;;;;8.90;8.20;;;;;;;37.56;31.00;99194.13;5134482;27;20197;-66
2022/07/26 05:43:50;;;;;;;8.68;8.18;;;;;;;37.48;30.54;99192.44;5134069;27;20800;-66
2022/07/26 05:46:18;;;;;;;9.55;8.85;;;;;;;37.59;31.28;99196.13;5134125;27;20328;-66
2022/07/26 05:48:44;;;;;;;10.10;9.15;;;;;;;37.67;31.02;99197.81;5133765;27;20645;-66
2022/07/26 05:51:11;;;;;;;9.48;8.70;;;;;;;37.64;30.49;99198.56;5134391;27;20194;-66
2022/07/26 05:53:38;;;;;;;8.65;7.85;;;;;;;37.61;30.78;99193.00;5134183;27;20271;-66
2022/07/26 05:56:06;;;;;;;8.70;7.95;;;;;;;37.63;30.31;99196.19;5134708;27;20272;-67
2022/07/26 05:58:34;;;;;;;10.35;9.55;;;;;;;37.69;30.61;99200.19;5134482;27;20193;-67
2022/07/26 06:01:01;;;;;;;12.63;9.30;;;;;;;37.67;30.87;99197.81;5134070;27;20262;-67
2022/07/26 06:03:28;;;;;;;10.77;9.77;;;;;;;37.61;30.79;99193.78;5133198;27;20190;-67
2022/07/26 06:05:57;;;;;;;9.77;9.18;;;;;;;37.37;31.05;99191.53;5133857;27;20186;-67
2022/07/26 06:08:24;;;;;;;9.93;9.10;;;;;;;37.35;31.35;99191.09;5131424;27;20202;-72
2022/07/26 06:10:53;;;;;;;13.30;9.73;;;;;;;37.38;31.05;99193.13;5131396;27;20185;-71
2022/07/26 06:13:19;;;;;;;12.15;11.02;;;;;;;37.42;31.24;99185.66;5131626;27;20198;-67
2022/07/26 06:15:48;;;;;;;95.35;15.73;;;;;;;37.71;30.83;99190.31;5133671;27;20194;-67
2022/07/26 06:18:15;;;;;;;11.27;8.80;;;;;;;37.38;30.69;99187.59;5132487;27;20218;-66
2022/07/26 06:20:43;;;;;;;10.98;10.18;;;;;;;36.91;31.88;99176.34;5133927;27;20246;-67
2022/07/26 06:23:10;;;;;;;14.25;11.05;;;;;;;37.16;31.55;99183.00;5134370;27;20242;-65
2022/07/26 06:25:37;;;;;;;9.88;8.88;;;;;;;36.98;31.14;99173.66;5133442;27;20196;-66
2022/07/26 06:28:05;;;;;;;9.38;8.70;;;;;;;37.11;30.85;99181.31;5133450;27;20730;-66
2022/07/26 06:30:32;;;;;;;9.32;8.82;;;;;;;37.20;30.73;99165.22;5133793;27;20190;-65
2022/07/26 06:33:00;;;;;;;10.45;9.63;;;;;;;37.32;31.29;99174.44;5133598;27;20194;-65
2022/07/26 06:35:29;;;;;;;14.82;10.20;;;;;;;36.87;31.57;99167.19;5133424;27;20198;-65
2022/07/26 06:37:57;;;;;;;13.52;10.73;;;;;;;36.79;32.13;99166.28;5133952;27;20267;-66
2022/07/26 06:40:24;;;;;;;17.05;10.18;;;;;;;36.76;31.55;99157.97;5133547;27;20198;-65
2022/07/26 06:42:50;;;;;;;11.13;9.98;;;;;;;36.91;32.03;99159.72;5133454;27;20197;-66
2022/07/26 06:45:17;;;;;;;17.42;9.38;;;;;;;36.94;31.96;99158.97;5133207;27;20250;-65
2022/07/26 06:47:44;;;;;;;10.95;10.07;;;;;;;37.02;32.06;99153.13;5133538;27;20225;-66
2022/07/26 06:50:12;;;;;;;10.73;9.73;;;;;;;36.46;32.90;99155.16;5133083;27;20186;-65
2022/07/26 06:52:39;;;;;;;11.18;10.05;;;;;;;36.12;33.12;99150.69;5133289;27;20186;-66
2022/07/26 06:55:07;;;;;;;11.65;10.90;;;;;;;36.32;32.67;99148.63;5133314;27;20193;-65
2022/07/26 06:57:34;;;;;;;11.43;10.43;;;;;;;36.38;32.81;99147.94;5133501;27;20218;-65
2022/07/26 07:00:01;;;;;;;10.32;9.52;;;;;;;36.49;32.71;99146.13;5133227;27;20193;-66
2022/07/26 07:02:28;;;;;;;11.43;10.48;;;;;;;36.40;32.84;99150.31;5132883;27;20661;-65
2022/07/26 07:04:54;;;;;;;11.90;9.98;;;;;;;36.40;32.45;99139.25;5133195;27;20190;-65
2022/07/26 07:07:22;;;;;;;10.90;9.60;;;;;;;36.58;32.92;99134.78;5132865;27;20252;-66
2022/07/26 07:09:49;;;;;;;11.35;10.50;;;;;;;36.62;33.18;99135.63;5132709;28;20657;-66
2022/07/26 07:12:16;;;;;;;10.57;9.63;;;;;;;36.81;32.22;99143.78;5132770;27;20620;-65
2022/07/26 07:14:43;;;;;;;10.68;9.75;;;;;;;37.01;32.10;99147.97;5132676;27;20190;-65
2022/07/26 07:17:10;;;;;;;10.80;9.95;;;;;;;37.27;31.37;99145.09;5132971;28;20221;-65
2022/07/26 07:19:37;;;;;;;11.00;10.30;;;;;;;37.25;32.13;99141.94;5132722;27;20190;-66
2022/07/26 07:22:04;;;;;;;10.23;9.68;;;;;;;37.23;31.88;99144.25;5132809;28;20713;-66
2022/07/26 07:24:32;;;;;;;11.50;10.38;;;;;;;37.31;31.79;99153.47;5132635;28;20721;-66
2022/07/26 07:27:00;;;;;;;13.27;10.80;;;;;;;37.29;31.23;99142.75;5132788;28;20250;-66
2022/07/26 07:29:26;;;;;;;12.85;10.93;;;;;;;37.42;31.89;99146.84;5134116;27;20193;-66
2022/07/26 07:31:53;;;;;;;12.60;11.52;;;;;;;37.32;31.79;99144.78;5137171;27;20270;-67
2022/07/26 07:34:21;;;;;;;12.02;10.85;;;;;;;37.43;31.04;99148.41;5137122;27;20194;-66
2022/07/26 07:36:48;;;;;;;13.82;11.20;;;;;;;37.57;30.78;99151.34;5137323;27;20227;-66
2022/07/26 07:39:15;;;;;;;21.17;11.93;;;;;;;37.59;30.86;99146.22;5136560;27;20185;-65
2022/07/26 07:41:43;;;;;;;12.75;11.77;;;;;;;37.43;30.73;99150.41;5137014;27;20218;-66
2022/07/26 07:44:10;;;;;;;12.10;11.23;;;;;;;37.40;31.01;99149.22;5136491;27;20216;-65
2022/07/26 07:46:37;;;;;;;11.68;10.90;;;;;;;37.56;31.05;99144.22;5136859;27;20193;-65
2022/07/26 07:49:04;;;;;;;13.98;11.07;;;;;;;37.60;31.43;99147.81;5136820;27;20749;-65
2022/07/26 07:51:31;;;;;;;12.40;11.13;;;;;;;37.62;31.54;99139.94;5137427;27;20556;-65
2022/07/26 07:53:57;;;;;;;11.00;10.20;;;;;;;37.56;30.79;99146.19;5136841;27;20636;-66
2022/07/26 07:56:24;;;;;;;13.18;10.88;;;;;;;37.61;30.96;99143.88;5136725;27;20198;-66
2022/07/26 07:58:52;;;;;;;11.45;10.57;;;;;;;37.77;30.59;99130.56;5136496;27;20217;-66
2022/07/26 08:01:19;;;;;;;13.48;12.48;;;;;;;37.48;30.37;99139.78;5136114;27;20653;-66
2022/07/26 08:03:46;;;;;;;12.18;10.95;;;;;;;37.23;31.40;99128.44;5136350;27;20621;-66
2022/07/26 08:06:13;;;;;;;12.25;11.25;;;;;;;37.31;30.88;99136.84;5133644;27;20194;-65
2022/07/26 08:08:39;;;;;;;12.48;11.63;;;;;;;37.31;30.91;99132.06;5135099;27;20197;-66
2022/07/26 08:11:06;;;;;;;11.38;10.43;;;;;;;37.34;31.29;99133.31;5134823;27;20190;-65
2022/07/26 08:13:33;;;;;;;11.20;10.45;;;;;;;37.43;30.75;99126.25;5134929;27;20251;-65
2022/07/26 08:16:01;;;;;;;12.45;10.90;;;;;;;37.38;30.52;99132.16;5136247;27;20197;-65
2022/07/26 08:18:28;;;;;;;11.57;10.70;;;;;;;37.66;30.15;99128.84;5136489;27;20588;-65
2022/07/26 08:20:55;;;;;;;12.85;11.65;;;;;;;37.72;30.16;99117.00;5135781;27;20250;-64
2022/07/26 08:23:22;;;;;;;14.10;12.23;;;;;;;37.45;30.79;99107.28;5135890;27;20630;-65
2022/07/26 08:25:49;;;;;;;12.15;11.35;;;;;;;37.60;31.32;99117.31;5135759;27;20190;-64
2022/07/26 08:28:16;;;;;;;11.63;10.82;;;;;;;37.85;30.22;99115.56;5135530;27;20677;-66
2022/07/26 08:30:43;;;;;;;14.93;12.40;;;;;;;38.10;30.09;99105.44;5133922;27;20845;-64
2022/07/26 08:33:11;;;;;;;13.32;12.15;;;;;;;37.62;30.63;99111.38;5132472;27;20553;-66
2022/07/26 08:35:37;;;;;;;12.38;11.43;;;;;;;36.40;32.41;99112.41;5134942;27;20237;-65
2022/07/26 08:38:04;;;;;;;13.18;12.25;;;;;;;36.73;31.68;99095.00;5129243;27;20274;-68
2022/07/26 08:40:33;;;;;;;13.10;11.98;;;;;;;36.24;33.07;99099.91;5128205;27;20190;-68
2022/07/26 08:43:01;;;;;;;13.25;11.90;;;;;;;36.50;32.51;99094.34;5127337;27;20673;-66
2022/07/26 08:45:29;;;;;;;14.73;12.70;;;;;;;36.67;32.57;99091.75;5129512;27;20243;-67
2022/07/26 08:47:56;;;;;;;13.38;12.23;;;;;;;36.63;32.38;99095.69;5130079;27;20287;-67
2022/07/26 08:50:26;;;;;;;14.82;13.15;;;;;;;36.50;32.77;99083.25;5131589;27;20238;-65
2022/07/26 08:52:55;;;;;;;14.18;12.85;;;;;;;36.54;32.69;99100.72;5131569;27;20312;-68
2022/07/26 08:55:22;;;;;;;12.82;11.73;;;;;;;36.49;32.54;99084.41;5131060;27;20208;-66
2022/07/26 08:57:48;;;;;;;12.98;11.95;;;;;;;36.11;32.79;99098.50;5130456;27;20225;-67
2022/07/26 09:00:20;;;;;;;12.05;11.15;;;;;;;36.18;33.50;99093.09;5130080;27;20201;-67
2022/07/26 09:02:48;;;;;;;12.73;11.65;;;;;;;36.25;32.19;99094.00;5132286;27;20251;-67
2022/07/26 09:05:17;;;;;;;11.93;10.93;;;;;;;36.52;32.17;99092.78;5131414;27;20243;-66
2022/07/26 09:07:46;;;;;;;13.88;12.57;;;;;;;36.82;32.00;99084.44;5133097;27;20237;-68
2022/07/26 09:10:14;;;;;;;12.80;11.50;;;;;;;36.97;31.63;99080.66;5131187;27;20285;-67
2022/07/26 09:12:42;;;;;;;12.35;11.23;;;;;;;37.15;31.26;99076.91;5133327;27;20186;-70
2022/07/26 09:15:18;;;;;;;15.77;12.93;;;;;;;37.04;32.29;99075.19;5133485;27;20190;-66
2022/07/26 09:17:47;;;;;;;13.88;12.68;;;;;;;36.66;32.61;99070.00;5133921;27;20209;-66
2022/07/26 09:20:16;;;;;;;12.88;11.73;;;;;;;36.82;32.28;99073.34;5132582;27;20198;-67
2022/07/26 09:23:02;;;;;;;13.00;11.70;;;;;;;37.07;32.10;99058.59;5134251;27;20261;-67
2022/07/26 09:25:32;;;;;;;13.13;12.02;;;;;;;36.64;32.58;99058.50;5134060;27;20694;-66
2022/07/26 09:27:59;;;;;;;13.95;12.73;;;;;;;36.82;32.39;99059.50;5133835;27;20664;-66
2022/07/26 09:30:27;;;;;;;12.98;11.63;;;;;;;36.71;33.00;99055.84;5132059;27;20186;-67
2022/07/26 09:32:59;;;;;;;11.75;11.15;;;;;;;37.11;31.64;99047.56;5133595;27;20200;-66
2022/07/26 09:35:27;;;;;;;13.38;12.27;;;;;;;37.06;32.22;99045.91;5134586;27;20186;-65
2022/07/26 09:37:54;;;;;;;12.30;11.35;;;;;;;36.51;32.51;99046.91;5131605;27;20717;-66
2022/07/26 09:40:22;;;;;;;12.85;11.77;;;;;;;36.65;33.14;99040.72;5132745;27;20194;-66
2022/07/26 09:42:56;;;;;;;13.48;12.48;;;;;;;36.86;32.12;99039.00;5133259;27;20194;-67
2022/07/26 09:45:24;;;;;;;11.75;10.80;;;;;;;37.02;32.47;99030.44;5133527;27;20649;-68
2022/07/26 09:47:50;;;;;;;14.77;11.25;;;;;;;36.75;32.87;99038.09;5132514;27;20773;-67
2022/07/26 09:50:18;;;;;;;12.20;11.30;;;;;;;37.06;31.90;99039.56;5132721;27;20193;-67
2022/07/26 09:52:59;;;;;;;12.82;11.80;;;;;;;37.39;31.72;99031.19;5116959;27;20202;-71
2022/07/26 09:55:28;;;;;;;11.40;10.70;;;;;;;37.65;31.32;99039.34;5113394;28;20684;-67
2022/07/26 09:57:58;;;;;;;11.45;10.63;;;;;;;37.14;31.49;99036.53;5112800;28;20210;-67
2022/07/26 10:00:25;;;;;;;11.07;10.10;;;;;;;37.26;31.65;99031.88;5112569;28;20197;-64
2022/07/26 10:02:52;;;;;;;10.70;10.00;;;;;;;37.53;30.63;99033.25;5113319;28;20190;-65
2022/07/26 10:05:20;;;;;;;11.52;10.82;;;;;;;37.60;30.57;99033.34;5112619;28;20657;-65
2022/07/26 10:07:47;;;;;;;11.45;10.35;;;;;;;37.55;31.63;99037.25;5112933;28;20281;-67
2022/07/26 10:10:18;;;;;;;11.13;10.27;;;;;;;37.52;31.57;99032.50;5112803;28;20212;-65
2022/07/26 10:12:49;;;;;;;12.50;11.40;;;;;;;37.15;31.98;99020.72;5114159;28;20334;-65
2022/07/26 10:15:34;;;;;;;11.48;10.57;;;;;;;37.07;31.65;99014.25;5115096;27;20205;-66
2022/07/26 10:18:02;;;;;;;16.52;10.95;;;;;;;37.06;32.48;99006.31;5133535;27;20209;-66
2022/07/26 10:20:40;;;;;;;12.45;11.45;;;;;;;37.19;31.74;99007.66;5133410;27;20198;-69
2022/07/26 10:23:32;;;;;;;10.50;9.75;;;;;;;36.76;32.63;99008.44;5133529;27;20217;-66
2022/07/26 10:25:59;;;;;;;11.77;10.95;;;;;;;36.75;32.18;98995.78;5121715;27;20338;-65
2022/07/26 10:28:29;;;;;;;11.18;10.32;;;;;;;37.00;31.75;98999.56;5134380;27;20573;-67
2022/07/26 10:31:29;;;;;;;12.45;11.20;;;;;;;37.17;31.88;98985.09;5132998;27;20242;-67
2022/07/26 10:33:56;;;;;;;11.30;10.45;;;;;;;37.37;32.24;98986.44;5133882;27;20185;-65
2022/07/26 10:36:35;;;;;;;10.38;9.75;;;;;;;37.42;31.75;98994.38;5132967;27;20202;-65
2022/07/26 10:39:11;;;;;;;11.48;10.38;;;;;;;36.95;31.20;98983.31;5131010;27;20205;-65
2022/07/26 10:41:40;;;;;;;12.40;11.10;;;;;;;37.14;32.13;98985.84;5131364;27;20182;-64
2022/07/26 10:44:20;;;;;;;10.70;10.05;;;;;;;37.28;32.12;98978.44;5132155;27;20251;-65
2022/07/26 10:47:10;;;;;;;10.48;9.68;;;;;;;37.40;31.18;98985.66;5131284;27;20645;-66
2022/07/26 10:49:38;;;;;;;9.95;9.32;;;;;;;37.18;31.07;98970.06;5131244;27;20186;-65
2022/07/26 10:52:16;;;;;;;10.00;9.20;;;;;;;36.98;30.42;98971.44;5132886;27;20185;-64
2022/07/26 10:55:13;;;;;;;8.90;8.25;;;;;;;36.96;28.34;98968.25;5133303;27;20182;-64
2022/07/26 10:57:41;;;;;;;9.02;8.43;;;;;;;37.24;28.50;98962.97;5133102;27;20194;-64
2022/07/26 11:00:13;;;;;;;9.73;8.93;;;;;;;37.53;29.07;98963.97;5132959;27;20247;-65
2022/07/26 11:02:42;;;;;;;8.15;7.55;;;;;;;37.18;27.79;98953.41;5132874;27;20186;-64
2022/07/26 11:05:14;;;;;;;8.00;7.60;;;;;;;37.26;27.71;98949.53;5132579;27;20197;-64
2022/07/26 11:07:53;;;;;;;8.48;8.07;;;;;;;37.41;28.72;98950.41;5131547;27;20205;-64
2022/07/26 11:10:27;;;;;;;8.38;7.85;;;;;;;37.72;27.44;98947.84;5130403;27;20737;-64
2022/07/26 11:13:13;;;;;;;8.63;8.15;;;;;;;37.51;27.04;98939.38;5120008;27;20274;-66
2022/07/26 11:15:43;;;;;;;8.70;8.23;;;;;;;37.65;27.41;98939.50;5119719;28;20209;-67
2022/07/26 11:18:13;;;;;;;8.50;7.80;;;;;;;37.71;27.21;98921.31;5130540;28;20239;-65
2022/07/26 11:20:41;;;;;;;8.48;8.07;;;;;;;37.64;27.77;98931.59;5131435;28;20329;-65
2022/07/26 11:23:30;;;;;;;8.55;7.55;;;;;;;37.40;27.57;98927.47;5132046;27;20189;-64
2022/07/26 11:26:13;;;;;;;7.13;6.82;;;;;;;37.51;27.17;98921.97;5130784;27;20722;-64
2022/07/26 11:28:51;;;;;;;8.25;7.85;;;;;;;37.60;27.00;98919.69;5129098;27;20657;-65
2022/07/26 11:31:22;;;;;;;8.60;7.85;;;;;;;37.53;26.89;98920.41;5129923;27;20186;-66
2022/07/26 11:33:50;;;;;;;7.78;7.28;;;;;;;37.70;27.11;98903.09;5129304;27;20935;-64
2022/07/26 11:36:18;;;;;;;7.55;6.93;;;;;;;37.75;26.75;98899.94;5130264;27;20272;-67
2022/07/26 11:38:51;;;;;;;8.57;7.82;;;;;;;37.84;25.76;98907.91;5129863;27;20265;-66